createdAt,value
2022-08-03T00:01:11.755Z,1000.58
2022-08-03T00:06:55.214Z,1000.6
2022-08-03T00:12:38.591Z,1000.57
2022-08-03T00:18:22.246Z,1000.53
2022-08-03T00:24:06.111Z,1000.45
2022-08-03T00:29:57.697Z,1000.42
2022-08-03T00:35:50.522Z,1000.4
2022-08-03T00:41:34.174Z,1000.34
2022-08-03T00:47:17.455Z,1000.29
2022-08-03T00:53:01.474Z,1000.22
2022-08-03T00:58:45.959Z,1000.2
2022-08-03T01:04:29.510Z,1000.11
2022-08-03T01:10:18.043Z,1000.1
2022-08-03T01:16:03.711Z,1000.13
2022-08-03T01:21:53.235Z,1000.12
2022-08-03T01:27:42.834Z,1000.09
2022-08-03T01:33:29.347Z,1000.05
2022-08-03T01:39:12.976Z,1000
2022-08-03T01:44:58.069Z,999.99
2022-08-03T01:50:41.715Z,999.92
2022-08-03T01:56:27.570Z,999.9
2022-08-03T02:02:32.520Z,999.9
2022-08-03T02:08:18.723Z,999.86
2022-08-03T02:14:04.520Z,999.84
2022-08-03T02:19:48.430Z,999.84
2022-08-03T02:25:32.932Z,999.87
2022-08-03T02:31:19.944Z,999.78
2022-08-03T02:37:05.136Z,999.8
2022-08-03T02:42:50.122Z,999.78
2022-08-03T02:48:35.263Z,999.8
2022-08-03T02:54:20.488Z,999.76
2022-08-03T03:00:05.030Z,999.8
2022-08-03T03:05:57.581Z,999.72
2022-08-03T03:11:47.487Z,999.71
2022-08-03T03:17:31.895Z,999.64
2022-08-03T03:23:15.354Z,999.66
2022-08-03T03:28:58.914Z,999.57
2022-08-03T03:34:45.263Z,999.56
2022-08-03T03:40:29.427Z,999.57
2022-08-03T03:46:13.074Z,999.56
2022-08-03T03:51:57.214Z,999.53
2022-08-03T03:57:40.680Z,999.6
2022-08-03T04:03:24.115Z,999.63
2022-08-03T04:09:09.434Z,999.6
2022-08-03T04:14:55.040Z,999.64
2022-08-03T04:20:39.546Z,999.66
2022-08-03T04:26:24.837Z,999.67
2022-08-03T04:32:08.739Z,999.68
2022-08-03T04:37:52.938Z,999.72
2022-08-03T04:43:36.746Z,999.71
2022-08-03T04:49:20.851Z,999.77
2022-08-03T04:55:05.150Z,999.79
2022-08-03T05:00:50.230Z,999.84
2022-08-03T05:06:34.157Z,999.88
2022-08-03T05:12:33.476Z,999.91
2022-08-03T05:18:16.763Z,999.88
2022-08-03T05:24:00.309Z,999.91
2022-08-03T05:29:43.676Z,999.89
2022-08-03T05:35:55.377Z,999.91
2022-08-03T05:41:37.535Z,999.96
2022-08-03T05:47:21.035Z,1000.01
2022-08-03T05:53:04.390Z,999.96
2022-08-03T05:58:48.927Z,999.95
2022-08-03T06:04:32.426Z,999.95
2022-08-03T06:10:34.607Z,999.99
2022-08-03T06:16:19.865Z,1000.06
2022-08-03T06:22:04.194Z,1000.03
2022-08-03T06:27:47.714Z,1000.04
2022-08-03T06:33:48.703Z,1000.12
2022-08-03T06:39:34.479Z,1000.24
2022-08-03T06:45:17.940Z,1000.25
2022-08-03T06:51:01.502Z,1000.29
2022-08-03T06:56:49.459Z,1000.24
2022-08-03T07:02:32.906Z,1000.28
2022-08-03T07:08:16.491Z,1000.23
2022-08-03T07:14:14.715Z,1000.28
2022-08-03T07:19:58.179Z,1000.3
2022-08-03T07:25:41.840Z,1000.29
2022-08-03T07:31:25.119Z,1000.39
2022-08-03T07:37:13.543Z,1000.39
2022-08-03T07:42:57.149Z,1000.39
2022-08-03T07:48:40.828Z,1000.38
2022-08-03T07:54:24.260Z,1000.38
2022-08-03T08:00:13.059Z,1000.35
2022-08-03T08:05:56.567Z,1000.33
2022-08-03T08:11:41.125Z,1000.31
2022-08-03T08:17:24.809Z,1000.31
2022-08-03T08:23:27.608Z,1000.28
2022-08-03T08:29:12.493Z,1000.22
2022-08-03T08:34:56.248Z,1000.2
2022-08-03T08:40:39.665Z,1000.2
2022-08-03T08:46:24.996Z,1000.2
2022-08-03T08:52:22.209Z,1000.24
2022-08-03T08:58:20.847Z,1000.21
2022-08-03T09:04:06.910Z,1000.16
2022-08-03T09:10:00.406Z,1000.12
2022-08-03T09:16:02.416Z,1000.16
2022-08-03T09:21:46.153Z,1000.17
2022-08-03T09:27:29.787Z,1000.06
2022-08-03T09:33:17.385Z,1000.06
2022-08-03T09:39:06.471Z,1000.02
2022-08-03T09:44:51.117Z,1000.01
2022-08-03T09:50:57.191Z,999.99
2022-08-03T09:56:47.631Z,999.98
2022-08-03T10:02:31.237Z,999.95
2022-08-03T10:08:19.097Z,999.93
2022-08-03T10:14:03.145Z,999.96
2022-08-03T10:19:46.887Z,999.86
2022-08-03T10:25:34.393Z,999.83
2022-08-03T10:31:19.062Z,999.77
2022-08-03T10:37:04.031Z,999.69
2022-08-03T10:42:47.696Z,999.66
2022-08-03T10:48:32.151Z,999.57
2022-08-03T10:54:26.631Z,999.53
2022-08-03T11:00:13.022Z,999.4
2022-08-03T11:06:01.350Z,999.44
2022-08-03T11:11:45.174Z,999.39
2022-08-03T11:17:29.007Z,999.28
2022-08-03T11:23:12.913Z,999.35
2022-08-03T11:29:01.087Z,999.3
2022-08-03T11:34:55.248Z,999.24
2022-08-03T11:40:39.992Z,999.24
2022-08-03T11:46:29.693Z,999.27
2022-08-03T11:52:13.449Z,999.25
2022-08-03T11:59:00.474Z,999.13
2022-08-03T12:04:03.590Z,999.19
2022-08-03T12:09:51.959Z,999.11
2022-08-03T12:15:35.897Z,999.1
2022-08-03T12:21:19.371Z,999.07
2022-08-03T12:27:02.766Z,999.06
2022-08-03T12:32:47.319Z,999.04
2022-08-03T12:38:31.424Z,998.94
2022-08-03T12:44:26.890Z,998.9
2022-08-03T12:50:15.739Z,998.92
2022-08-03T12:56:07.219Z,998.92
2022-08-03T13:01:56.199Z,998.9
2022-08-03T13:07:46.738Z,998.85
2022-08-03T13:13:42.958Z,998.77
2022-08-03T13:19:26.901Z,998.7
2022-08-03T13:25:10.498Z,998.61
2022-08-03T13:30:54.027Z,998.62
2022-08-03T13:37:06.653Z,998.56
2022-08-03T13:42:41.173Z,998.54
2022-08-03T13:48:36.086Z,998.57
2022-08-03T13:54:19.898Z,998.51
2022-08-03T14:00:04.132Z,998.45
2022-08-03T14:05:48.419Z,998.41
2022-08-03T14:12:05.264Z,998.4
2022-08-03T14:17:42.125Z,998.36
2022-08-03T14:23:33.834Z,998.26
2022-08-03T14:29:17.482Z,998.24
2022-08-03T14:35:00.935Z,998.25
2022-08-03T14:40:45.593Z,998.24
2022-08-03T14:46:29.294Z,998.09
2022-08-03T14:52:13.082Z,998.02
2022-08-03T14:57:56.667Z,997.98
2022-08-03T15:03:39.966Z,997.89
2022-08-03T15:09:24.885Z,997.9
2022-08-03T15:15:09.007Z,997.87
2022-08-03T15:20:52.519Z,997.78
2022-08-03T15:26:41.706Z,997.64
2022-08-03T15:32:27.270Z,997.58
2022-08-03T15:38:16.102Z,997.55
2022-08-03T15:43:59.965Z,997.47
2022-08-03T15:49:51.547Z,997.45
2022-08-03T15:55:35.066Z,997.41
2022-08-03T16:01:21.006Z,997.4
2022-08-03T16:07:04.541Z,997.36
2022-08-03T16:12:48.483Z,997.38
2022-08-03T16:18:32.146Z,997.33
2022-08-03T16:24:20.657Z,997.32
2022-08-03T16:30:11.853Z,997.28
2022-08-03T16:35:56.592Z,997.19
2022-08-03T16:41:54.620Z,997.31
2022-08-03T16:47:43.273Z,997.34
2022-08-03T16:53:33.359Z,997.47
2022-08-03T16:59:36.492Z,997.46
2022-08-03T17:05:25.448Z,997.44
2022-08-03T17:11:26.626Z,997.2
2022-08-03T17:17:21.774Z,997.27
2022-08-03T17:23:34.234Z,997.25
2022-08-03T17:29:17.389Z,997.24
2022-08-03T17:35:09.321Z,997.2
2022-08-03T17:40:56.760Z,997.08
2022-08-03T17:46:43.889Z,997.11
2022-08-03T17:52:35.679Z,997.1
2022-08-03T17:58:26.255Z,997.06
2022-08-03T18:04:13.047Z,997.11
2022-08-03T18:10:11.172Z,997.16
2022-08-03T18:16:00.813Z,997.15
2022-08-03T18:22:03.835Z,997.13
2022-08-03T18:27:48.642Z,997.19
2022-08-03T18:34:15.734Z,997.19
2022-08-03T18:39:49.732Z,997.26
2022-08-03T18:45:55.380Z,997.25
2022-08-03T18:51:46.358Z,997.25
2022-08-03T18:57:39.042Z,997.24
2022-08-03T19:03:41.627Z,997.24
2022-08-03T19:09:28.884Z,997.28
2022-08-03T19:15:18.564Z,997.29
2022-08-03T19:21:18.628Z,997.3
2022-08-03T19:27:10.673Z,997.36
2022-08-03T19:32:54.952Z,997.34
2022-08-03T19:38:40.532Z,997.34
2022-08-03T19:44:30.298Z,997.41
2022-08-03T19:50:16.558Z,997.46
2022-08-03T19:56:00.520Z,997.44
2022-08-03T20:01:50.540Z,997.52
2022-08-03T20:07:35.449Z,997.42
2022-08-03T20:13:20.953Z,997.48
2022-08-03T20:19:14.959Z,997.52
2022-08-03T20:25:03.675Z,997.48
2022-08-03T20:30:52.148Z,997.47
2022-08-03T20:36:36.113Z,997.47
2022-08-03T20:42:22.566Z,997.49
2022-08-03T20:48:09.302Z,997.48
2022-08-03T20:54:03.926Z,997.52
2022-08-03T21:00:00.934Z,997.51
2022-08-03T21:05:53.586Z,997.52
2022-08-03T21:11:42.700Z,997.46
2022-08-03T21:17:41.264Z,997.43
2022-08-03T21:23:37.094Z,997.43
2022-08-03T21:29:29.842Z,997.41
2022-08-03T21:35:13.739Z,997.37
2022-08-03T21:40:58.767Z,997.33
2022-08-03T21:46:43.002Z,997.26
2022-08-03T21:52:26.969Z,997.23
2022-08-03T21:58:13.521Z,997.22
2022-08-03T22:03:59.383Z,997.22
2022-08-03T22:09:51.001Z,997.19
2022-08-03T22:15:35.054Z,997.16
2022-08-03T22:21:27.601Z,997.15
2022-08-03T22:27:20.128Z,997.11
2022-08-03T22:33:05.647Z,997.07
2022-08-03T22:38:55.791Z,997.1
2022-08-03T22:44:39.829Z,997.09
2022-08-03T22:50:32.964Z,997.05
2022-08-03T22:56:17.533Z,997.05
2022-08-03T23:02:15.277Z,997.1
2022-08-03T23:08:03.258Z,997.05
2022-08-03T23:13:52.836Z,996.97
2022-08-03T23:19:44.699Z,996.98
2022-08-03T23:25:29.198Z,996.99
2022-08-03T23:31:14.384Z,997.01
2022-08-03T23:36:57.783Z,997
2022-08-03T23:42:41.758Z,996.94
2022-08-03T23:48:25.491Z,996.94
2022-08-03T23:54:13.400Z,996.94
